Time;durP1;ratioP1;P1;durP2;ratioP2;P2;SDS_P1;SDS_P2;PMS_P1;PMS_P2;Temp;Humidity;BMP_temperature;BMP_pressure;BME280_temperature;BME280_humidity;BME280_pressure;Samples;Min_cycle;Max_cycle;Signal;HPM_P1;HPM_P2
2021/05/30 00:00:07;;;;;;;6.20;3.37;;;;;;;13.49;84.34;99145.34;1710211;83;21040;-60
2021/05/30 00:02:35;;;;;;;5.75;2.35;;;;;;;13.45;84.62;99147.87;1704881;83;21093;-60
2021/05/30 00:05:04;;;;;;;4.30;2.85;;;;;;;13.44;84.62;99143.52;1655758;86;21049;-61
2021/05/30 00:07:30;;;;;;;3.72;2.90;;;;;;;13.47;84.64;99144.82;1655477;86;21109;-60
2021/05/30 00:09:57;;;;;;;3.72;2.52;;;;;;;13.49;84.63;99147.27;1703420;83;21563;-60
2021/05/30 00:12:23;;;;;;;;;;;;;;;13.53;84.65;99142.81;1698327;83;21096;-60
2021/05/30 00:14:51;;;;;;;4.58;2.55;;;;;;;13.57;84.52;99142.45;1703199;83;20148;-62
2021/05/30 00:17:18;;;;;;;4.62;3.20;;;;;;;13.51;84.58;99145.02;1716348;83;21128;-61
2021/05/30 00:19:46;;;;;;;4.22;2.37;;;;;;;13.52;84.54;99146.09;1652669;86;21104;-61
2021/05/30 00:22:13;;;;;;;3.62;2.65;;;;;;;13.57;84.46;99142.45;1702489;83;21104;-61
2021/05/30 00:24:41;;;;;;;5.50;2.80;;;;;;;13.59;84.34;99140.21;1656271;86;21069;-61
2021/05/30 00:27:08;;;;;;;;;;;;;;;13.56;84.25;99144.93;1710076;83;21104;-61
2021/05/30 00:29:34;;;;;;;3.22;2.50;;;;;;;13.58;84.37;99139.40;1711348;83;20235;-61
2021/05/30 00:32:03;;;;;;;4.87;2.80;;;;;;;13.54;84.46;99140.30;1695475;83;21072;-61
2021/05/30 00:34:29;;;;;;;4.47;2.80;;;;;;;13.58;84.42;99139.40;1679084;83;21124;-61
2021/05/30 00:36:56;;;;;;;3.45;2.52;;;;;;;13.62;84.32;99140.41;1653670;86;21093;-61
2021/05/30 00:39:23;;;;;;;4.92;2.98;;;;;;;13.66;84.19;99137.32;1721826;83;21088;-61
2021/05/30 00:41:49;;;;;;;;;;;;;;;13.72;84.14;99144.84;1715468;82;21560;-61
2021/05/30 00:44:25;;;;;;;4.08;2.90;;;;;;;13.73;83.92;99143.73;1707112;83;20164;-61
2021/05/30 00:46:56;;;;;;;3.90;2.90;;;;;;;13.64;84.02;99142.85;1707180;83;21021;-61
2021/05/30 00:49:23;;;;;;;4.92;3.08;;;;;;;13.60;84.16;99145.95;1705611;83;21052;-61
2021/05/30 00:51:50;;;;;;;4.67;3.00;;;;;;;13.57;84.26;99146.56;1717376;82;21589;-61
2021/05/30 00:54:17;;;;;;;4.25;3.05;;;;;;;13.55;84.29;99141.38;1722200;83;21064;-61
2021/05/30 00:56:44;;;;;;;4.55;3.08;;;;;;;13.51;84.32;99145.02;1718157;83;21582;-61
2021/05/30 00:59:11;;;;;;;4.12;3.25;;;;;;;13.52;84.38;99146.65;1707043;83;21060;-61
2021/05/30 01:01:39;;;;;;;5.08;3.17;;;;;;;13.50;84.42;99149.67;1718562;83;21088;-62
2021/05/30 01:04:06;;;;;;;6.10;2.98;;;;;;;13.51;84.50;99149.94;1677263;83;21096;-61
2021/05/30 01:06:33;;;;;;;4.60;3.17;;;;;;;13.48;84.48;99146.45;1717886;83;21072;-61
2021/05/30 01:09:01;;;;;;;4.08;2.83;;;;;;;13.45;84.57;99145.70;1717490;83;21108;-60
2021/05/30 01:11:27;;;;;;;5.33;3.52;;;;;;;13.44;84.58;99144.88;1695597;83;21067;-61
2021/05/30 01:13:56;;;;;;;6.75;3.10;;;;;;;13.44;84.59;99143.52;1714801;83;21140;-61
2021/05/30 01:16:24;;;;;;;5.25;3.50;;;;;;;13.46;84.56;99145.38;1720642;83;21005;-61
2021/05/30 01:18:56;;;;;;;4.45;3.12;;;;;;;13.48;84.67;99145.08;1710628;83;21096;-62
2021/05/30 01:21:23;;;;;;;4.92;3.47;;;;;;;13.48;84.63;99146.45;1715364;83;21080;-61
2021/05/30 01:23:51;;;;;;;5.70;2.80;;;;;;;13.46;84.67;99142.64;1715893;83;21614;-60
2021/05/30 01:26:19;;;;;;;4.62;2.60;;;;;;;13.44;84.74;99140.78;1677992;85;21072;-60
2021/05/30 01:28:46;;;;;;;6.75;3.08;;;;;;;13.41;84.84;99141.39;1704773;83;21093;-59
2021/05/30 01:31:15;;;;;;;4.62;2.70;;;;;;;13.38;84.89;99139.83;1681004;83;21520;-60
2021/05/30 01:33:41;;;;;;;3.95;3.15;;;;;;;13.38;84.92;99144.74;1695133;83;21060;-60
2021/05/30 01:36:07;;;;;;;4.10;2.67;;;;;;;13.38;84.92;99148.03;1716037;83;21547;-60
2021/05/30 01:38:34;;;;;;;5.45;2.47;;;;;;;13.39;85.03;99146.34;1712507;83;21084;-61
2021/05/30 01:41:00;;;;;;;4.17;3.02;;;;;;;13.48;85.06;99149.73;1713619;83;21622;-60
2021/05/30 01:43:27;;;;;;;4.22;3.00;;;;;;;13.48;84.88;99149.19;1708444;82;21128;-60
2021/05/30 01:45:53;;;;;;;;;;;;;;;13.47;84.93;99146.19;1694170;83;21133;-60
2021/05/30 01:48:20;;;;;;;3.33;2.70;;;;;;;13.44;84.93;99148.98;1699053;83;20208;-61
2021/05/30 01:50:47;;;;;;;4.05;2.80;;;;;;;13.40;85.18;99149.34;1696116;83;21544;-60
2021/05/30 01:53:16;;;;;;;4.10;3.00;;;;;;;13.39;85.09;99148.29;1711070;83;21084;-60
2021/05/30 01:55:49;;;;;;;3.65;2.70;;;;;;;13.35;85.12;99146.72;1715093;83;21020;-60
2021/05/30 01:58:10;;;;;;;5.33;2.58;;;;;;;13.35;85.13;99150.82;1711770;83;21645;-60
2021/05/30 02:00:36;;;;;;;4.95;2.80;;;;;;;13.37;85.13;99147.77;1706249;83;21069;-61
2021/05/30 02:03:03;;;;;;;4.62;2.80;;;;;;;13.38;85.11;99148.03;1715917;83;21049;-61
2021/05/30 02:05:29;;;;;;;5.62;2.98;;;;;;;13.38;85.16;99149.39;1697399;83;21081;-62
2021/05/30 02:07:56;;;;;;;4.92;2.80;;;;;;;13.39;85.17;99147.70;1709922;83;21642;-62
2021/05/30 02:10:23;;;;;;;;;;;;;;;13.41;85.25;99147.41;1651302;87;21211;-60
2021/05/30 02:12:55;;;;;;;3.67;2.67;;;;;;;13.48;85.19;99152.47;1686182;84;20534;-61
2021/05/30 02:15:22;;;;;;;4.75;2.60;;;;;;;13.44;85.35;99148.17;1685130;84;21038;-61
2021/05/30 02:17:48;;;;;;;4.90;2.83;;;;;;;13.39;85.50;99154.54;1681220;84;21129;-61
2021/05/30 02:20:15;;;;;;;;;;;;;;;13.43;85.51;99160.21;1691715;82;21077;-61
2021/05/30 02:22:42;;;;;;;4.17;2.73;;;;;;;13.43;85.30;99155.55;1709535;84;20141;-60
2021/05/30 02:25:10;;;;;;;4.83;2.90;;;;;;;13.42;85.40;99161.34;1682236;82;21607;-61
2021/05/30 02:27:37;;;;;;;4.03;2.77;;;;;;;13.44;85.36;99164.02;1701872;83;21152;-60
2021/05/30 02:30:06;;;;;;;4.25;2.87;;;;;;;13.49;85.17;99165.85;1678181;84;21081;-61
2021/05/30 02:32:33;;;;;;;4.30;2.65;;;;;;;13.54;85.08;99168.47;1682708;85;21127;-60
2021/05/30 02:35:00;;;;;;;3.92;2.77;;;;;;;13.56;84.84;99168.98;1688664;84;21136;-61
2021/05/30 02:37:26;;;;;;;;;;;;;;;13.53;84.75;99164.69;1709381;84;21109;-60
2021/05/30 02:39:53;;;;;;;6.35;2.75;;;;;;;13.54;84.77;99160.27;1697642;83;20527;-60
2021/05/30 02:42:19;;;;;;;3.72;2.55;;;;;;;13.48;84.85;99165.59;1708694;84;21081;-60
2021/05/30 02:44:45;;;;;;;;;;;;;;;13.51;84.90;99171.00;1698184;84;21061;-61
2021/05/30 02:47:11;;;;;;;4.75;3.33;;;;;;;13.54;84.87;99175.86;1676861;84;20171;-60
2021/05/30 02:49:39;;;;;;;3.58;3.02;;;;;;;13.46;85.19;99177.41;1625470;88;21100;-61
2021/05/30 02:52:06;;;;;;;;;;;;;;;13.50;85.31;99181.70;1704682;82;21176;-61
2021/05/30 02:54:32;;;;;;;3.92;2.27;;;;;;;13.57;84.95;99182.89;1706634;84;20200;-60
2021/05/30 02:57:00;;;;;;;4.92;2.80;;;;;;;13.57;84.86;99183.47;1674663;84;21050;-61
2021/05/30 02:59:27;;;;;;;3.83;3.00;;;;;;;13.55;84.66;99185.69;1707857;84;21053;-62
2021/05/30 03:01:53;;;;;;;5.72;3.75;;;;;;;13.54;84.75;99182.69;1702870;84;21021;-62
2021/05/30 03:04:19;;;;;;;5.78;2.90;;;;;;;13.50;84.78;99189.91;1709098;84;21093;-62
2021/05/30 03:06:45;;;;;;;3.65;2.90;;;;;;;13.52;84.89;99190.40;1705981;82;21049;-62
2021/05/30 03:09:12;;;;;;;5.70;3.22;;;;;;;13.55;84.91;99185.14;1709147;83;21081;-61
2021/05/30 03:11:40;;;;;;;7.17;3.27;;;;;;;13.55;84.87;99187.05;1686791;84;21029;-61
2021/05/30 03:14:06;;;;;;;4.60;2.62;;;;;;;13.55;84.90;99191.16;1681329;84;21671;-61
2021/05/30 03:16:32;;;;;;;;;;;;;;;13.57;84.96;99193.05;1708443;84;21049;-62
2021/05/30 03:19:00;;;;;;;5.20;3.08;;;;;;;13.59;84.98;99190.25;1687726;83;20179;-61
2021/05/30 03:21:27;;;;;;;;;;;;;;;13.55;85.12;99186.50;1700252;84;21057;-62
2021/05/30 03:23:53;;;;;;;4.58;2.77;;;;;;;13.57;85.10;99191.09;1711529;83;20501;-62
2021/05/30 03:26:19;;;;;;;;;;;;;;;13.56;85.26;99190.05;1713033;83;21122;-62
2021/05/30 03:28:46;;;;;;;5.83;2.70;;;;;;;13.52;84.96;99183.56;1697569;83;20166;-61
2021/05/30 03:31:13;;;;;;;5.20;2.87;;;;;;;13.52;84.96;99183.56;1656316;86;21620;-62
2021/05/30 03:33:40;;;;;;;3.22;2.52;;;;;;;13.51;85.10;99188.77;1710406;83;21057;-61
2021/05/30 03:36:10;;;;;;;4.47;2.65;;;;;;;13.49;84.97;99196.48;1719804;83;21056;-61
2021/05/30 03:38:35;;;;;;;4.17;2.47;;;;;;;13.46;84.88;99197.33;1722060;83;21104;-61
2021/05/30 03:41:09;;;;;;;;;;;;;;;13.39;85.08;99197.50;1723614;83;21039;-60
2021/05/30 03:43:35;;;;;;;4.80;3.58;;;;;;;13.37;85.12;99204.62;1681569;84;20489;-61
2021/05/30 03:46:03;;;;;;;4.12;3.08;;;;;;;13.28;85.47;99202.35;1713519;83;21029;-62
2021/05/30 03:48:31;;;;;;;3.58;2.98;;;;;;;13.29;85.50;99207.23;1703871;83;21084;-62
2021/05/30 03:50:57;;;;;;;2.60;2.33;;;;;;;13.28;85.63;99205.08;1656694;86;21591;-62
2021/05/30 03:53:24;;;;;;;3.62;2.60;;;;;;;13.31;85.52;99202.30;1698104;83;21115;-61
2021/05/30 03:55:52;;;;;;;4.00;3.10;;;;;;;13.32;85.47;99200.61;1712318;83;21571;-60
2021/05/30 03:58:19;;;;;;;3.90;3.17;;;;;;;13.31;85.41;99203.66;1715318;83;21144;-61
2021/05/30 04:00:46;;;;;;;5.45;3.30;;;;;;;13.35;85.44;99200.58;1711333;83;21116;-61
2021/05/30 04:03:12;;;;;;;3.50;2.75;;;;;;;13.36;85.37;99198.89;1656696;86;21096;-61
2021/05/30 04:05:39;;;;;;;;;;;;;;;13.38;85.27;99202.16;1713976;83;21594;-60
2021/05/30 04:08:06;;;;;;;;;;;;;;;13.33;85.36;99189.94;1710713;83;20190;-60
2021/05/30 04:10:33;;;;;;;3.85;2.92;;;;;;;13.28;85.38;99195.52;1700654;82;20521;-60
2021/05/30 04:12:59;;;;;;;4.55;2.90;;;;;;;13.24;85.74;99188.22;1722247;83;21124;-60
2021/05/30 04:15:26;;;;;;;4.87;2.80;;;;;;;13.28;85.62;99190.05;1708396;83;21663;-62
2021/05/30 04:17:52;;;;;;;3.40;2.92;;;;;;;13.33;85.48;99185.02;1720667;83;21069;-61
2021/05/30 04:20:20;;;;;;;4.62;3.47;;;;;;;13.35;85.16;99179.53;1720504;83;21084;-61
2021/05/30 04:22:47;;;;;;;2.85;2.55;;;;;;;13.37;85.00;99180.57;1720004;83;21641;-60
2021/05/30 04:25:13;;;;;;;3.33;2.70;;;;;;;13.42;84.90;99181.85;1698104;83;21105;-61
2021/05/30 04:27:41;;;;;;;6.28;3.00;;;;;;;13.43;84.45;99177.98;1701659;83;21113;-61
2021/05/30 04:30:11;;;;;;;4.90;2.87;;;;;;;13.42;84.21;99170.36;1696342;83;21116;-61
2021/05/30 04:32:38;;;;;;;4.12;3.00;;;;;;;13.33;84.11;99165.33;1707069;83;21136;-61
2021/05/30 04:35:05;;;;;;;3.98;2.90;;;;;;;13.34;83.96;99173.80;1715570;83;21572;-61
2021/05/30 04:37:33;;;;;;;3.33;2.55;;;;;;;13.32;84.25;99165.66;1712758;83;21144;-61
2021/05/30 04:40:00;;;;;;;4.37;3.30;;;;;;;13.35;84.38;99177.34;1716182;83;21893;-62
2021/05/30 04:42:26;;;;;;;;;;;;;;;13.33;84.42;99168.62;1701557;83;21093;-61
2021/05/30 04:44:52;;;;;;;5.70;3.30;;;;;;;13.31;84.48;99174.96;1688627;83;20256;-61
2021/05/30 04:47:19;;;;;;;6.47;3.08;;;;;;;13.26;84.72;99173.13;1694663;83;21503;-61
2021/05/30 04:49:45;;;;;;;8.83;2.90;;;;;;;13.32;84.78;99177.37;1709189;83;21064;-62
2021/05/30 04:52:12;;;;;;;3.60;2.67;;;;;;;13.40;84.74;99169.84;1696035;83;21085;-60
2021/05/30 04:54:38;;;;;;;;;;;;;;;13.45;84.48;99169.75;1656053;86;21112;-60
2021/05/30 04:57:06;;;;;;;8.08;3.17;;;;;;;13.53;84.39;99170.16;1658748;86;20486;-61
2021/05/30 04:59:33;;;;;;;3.87;3.05;;;;;;;13.51;84.07;99176.47;1643373;86;21152;-60
2021/05/30 05:01:59;;;;;;;6.10;3.00;;;;;;;13.52;83.75;99173.44;1661237;86;21077;-60
2021/05/30 05:04:25;;;;;;;;;;;;;;;13.53;83.43;99177.80;1672669;86;21687;-61
2021/05/30 05:06:52;;;;;;;6.15;2.95;;;;;;;13.52;83.31;99176.73;1708856;84;20152;-61
2021/05/30 05:09:19;;;;;;;4.97;3.05;;;;;;;13.49;83.47;99182.26;1709126;84;21642;-61
2021/05/30 05:11:45;;;;;;;;;;;;;;;13.53;83.50;99181.91;1687744;84;21069;-60
2021/05/30 05:14:12;;;;;;;5.53;3.07;;;;;;;13.59;83.13;99183.41;1690689;84;20175;-61
2021/05/30 05:16:38;;;;;;;;;;;;;;;13.60;83.04;99186.97;1654276;86;22060;-61
2021/05/30 05:19:05;;;;;;;5.58;2.95;;;;;;;13.66;83.23;99187.10;1670598;84;20168;-60
2021/05/30 05:21:33;;;;;;;5.58;3.02;;;;;;;13.67;83.34;99186.81;1675870;84;21565;-60
2021/05/30 05:23:59;;;;;;;4.62;2.98;;;;;;;13.74;83.19;99186.40;1672861;84;21099;-60
2021/05/30 05:26:26;;;;;;;4.40;3.15;;;;;;;13.76;82.94;99186.33;1670464;86;21066;-60
2021/05/30 05:28:53;;;;;;;4.08;3.05;;;;;;;13.85;82.72;99187.80;1697555;84;21139;-60
2021/05/30 05:31:20;;;;;;;4.45;2.55;;;;;;;13.92;82.24;99190.94;1712791;82;21040;-60
2021/05/30 05:33:47;;;;;;;3.12;2.77;;;;;;;13.92;81.53;99190.94;1705380;84;21106;-60
2021/05/30 05:36:16;;;;;;;4.60;3.10;;;;;;;13.90;81.38;99186.31;1713095;84;21629;-60
2021/05/30 05:38:43;;;;;;;3.20;2.72;;;;;;;13.88;81.78;99188.00;1712107;84;21083;-59
2021/05/30 05:41:10;;;;;;;4.60;2.50;;;;;;;13.94;82.03;99184.59;1710692;84;21095;-60
2021/05/30 05:43:37;;;;;;;6.50;3.25;;;;;;;14.06;82.12;99174.48;1706200;84;21123;-61
2021/05/30 05:46:03;;;;;;;4.60;3.37;;;;;;;14.16;81.51;99171.52;1704346;84;21657;-61
2021/05/30 05:48:29;;;;;;;2.90;2.60;;;;;;;14.32;81.49;99167.29;1708546;84;21072;-60
2021/05/30 05:50:56;;;;;;;4.67;2.85;;;;;;;14.45;80.76;99172.73;1704211;84;21684;-60
2021/05/30 05:53:22;;;;;;;3.75;2.65;;;;;;;14.60;80.80;99170.75;1714223;84;21128;-60
2021/05/30 05:55:49;;;;;;;6.40;2.87;;;;;;;14.85;80.72;99161.34;1711325;84;21084;-59
2021/05/30 05:58:15;;;;;;;3.22;2.45;;;;;;;15.08;79.58;99166.79;1697654;84;21590;-60
2021/05/30 06:00:41;;;;;;;;;;;;;;;15.36;80.08;99174.51;1716420;84;21099;-60
2021/05/30 06:03:08;;;;;;;6.22;2.40;;;;;;;15.62;76.78;99168.34;1713867;84;20168;-62
2021/05/30 06:05:34;;;;;;;3.72;2.65;;;;;;;15.62;75.26;99176.01;1706234;84;21138;-63
2021/05/30 06:08:01;;;;;;;5.15;2.60;;;;;;;15.55;75.76;99174.85;1698013;84;21143;-61
2021/05/30 06:10:28;;;;;;;3.75;2.60;;;;;;;15.52;74.69;99177.64;1714105;84;21107;-61
2021/05/30 06:13:00;;;;;;;4.67;2.55;;;;;;;15.42;75.03;99184.77;1714034;84;21087;-62
2021/05/30 06:15:29;;;;;;;5.28;2.75;;;;;;;15.36;74.99;99177.25;1707252;84;21602;-61
2021/05/30 06:18:17;;;;;;;5.60;2.65;;;;;;;15.38;75.73;99187.33;1701613;84;21110;-61
2021/05/30 06:20:40;;;;;;;3.60;2.77;;;;;;;15.45;74.80;99183.56;1708225;84;21124;-61
2021/05/30 06:23:07;;;;;;;5.67;2.52;;;;;;;15.49;75.46;99196.11;1710456;83;21139;-61
2021/05/30 06:25:34;;;;;;;2.77;2.30;;;;;;;15.54;74.34;99197.36;1700990;83;21626;-62
2021/05/30 06:28:01;;;;;;;4.60;2.50;;;;;;;15.64;73.91;99203.92;1700323;83;21072;-60
2021/05/30 06:30:29;;;;;;;3.92;2.50;;;;;;;15.64;73.32;99201.18;1702843;83;21025;-61
2021/05/30 06:32:56;;;;;;;5.05;2.45;;;;;;;15.67;74.08;99203.84;1700978;83;22036;-61
2021/05/30 06:35:23;;;;;;;3.37;2.15;;;;;;;15.71;73.97;99202.08;1713187;83;21080;-61
2021/05/30 06:37:51;;;;;;;3.22;2.17;;;;;;;15.75;73.84;99198.95;1721914;83;21136;-62
2021/05/30 06:40:17;;;;;;;;;;;;;;;15.76;73.17;99202.77;1721352;83;21084;-61
2021/05/30 06:42:44;;;;;;;4.97;2.87;;;;;;;15.70;71.50;99204.58;1715329;83;20183;-61
2021/05/30 06:45:12;;;;;;;3.47;2.65;;;;;;;15.62;73.31;99209.48;1691970;85;21646;-61
2021/05/30 06:47:39;;;;;;;4.65;2.60;;;;;;;15.67;73.96;99208.77;1666496;85;21152;-61
2021/05/30 06:50:07;;;;;;;3.22;2.45;;;;;;;15.74;73.43;99213.80;1700673;83;21131;-61
2021/05/30 06:52:34;;;;;;;3.70;2.37;;;;;;;15.76;73.23;99215.11;1667854;85;21115;-61
2021/05/30 06:55:00;;;;;;;;;;;;;;;15.78;73.72;99218.89;1724464;83;21072;-61
2021/05/30 06:57:26;;;;;;;3.60;2.83;;;;;;;15.68;72.82;99215.07;1702493;83;20220;-61
2021/05/30 06:59:52;;;;;;;;;;;;;;;15.58;73.35;99220.84;1696387;83;21120;-61
2021/05/30 07:02:19;;;;;;;4.97;3.10;;;;;;;15.59;74.05;99223.26;1692174;85;20503;-62
2021/05/30 07:04:46;;;;;;;6.80;2.90;;;;;;;15.56;73.89;99222.52;1657211;86;21069;-60
2021/05/30 07:07:14;;;;;;;3.62;2.90;;;;;;;15.57;74.70;99225.52;1717779;82;21108;-61
2021/05/30 07:09:43;;;;;;;4.58;3.17;;;;;;;15.49;73.80;99229.59;1722287;83;21619;-61
2021/05/30 07:12:10;;;;;;;3.85;2.70;;;;;;;15.47;74.62;99224.41;1694187;83;21132;-60
2021/05/30 07:14:38;;;;;;;3.45;2.65;;;;;;;15.48;73.96;99226.00;1632020;86;21083;-60
2021/05/30 07:17:04;;;;;;;5.12;3.20;;;;;;;15.48;73.35;99229.33;1700662;83;21053;-61
2021/05/30 07:19:31;;;;;;;;;;;;;;;15.50;73.68;99238.07;1696205;85;21606;-60
2021/05/30 07:21:57;;;;;;;3.33;2.98;;;;;;;15.43;73.93;99235.20;1713431;83;20148;-61
2021/05/30 07:24:24;;;;;;;4.47;3.08;;;;;;;15.31;74.71;99239.63;1719637;83;21064;-62
2021/05/30 07:26:50;;;;;;;3.62;3.10;;;;;;;15.35;75.17;99242.81;1685685;83;21033;-61
2021/05/30 07:29:17;;;;;;;4.12;2.40;;;;;;;15.41;75.19;99242.10;1687031;84;21064;-60
2021/05/30 07:31:45;;;;;;;2.72;2.40;;;;;;;15.40;73.20;99230.91;1709043;84;21037;-61
2021/05/30 07:34:12;;;;;;;2.87;2.20;;;;;;;15.47;73.42;99238.12;1698777;84;21001;-61
2021/05/30 07:36:38;;;;;;;;;;;;;;;15.51;73.38;99228.72;1683057;85;21080;-61
2021/05/30 07:39:05;;;;;;;2.67;2.20;;;;;;;15.66;72.32;99229.09;1680780;84;20485;-62
2021/05/30 07:41:33;;;;;;;3.52;2.37;;;;;;;15.67;71.59;99227.98;1708668;84;21084;-61
2021/05/30 07:44:00;;;;;;;3.52;2.52;;;;;;;15.75;70.88;99229.95;1682108;84;21097;-62
2021/05/30 07:46:26;;;;;;;;;;;;;;;15.71;70.92;99235.01;1682847;85;21068;-61
2021/05/30 07:48:53;;;;;;;3.98;2.20;;;;;;;15.81;70.97;99238.27;1661051;85;20524;-62
2021/05/30 07:51:20;;;;;;;3.12;2.30;;;;;;;15.85;70.73;99232.41;1678914;85;21088;-61
2021/05/30 07:53:46;;;;;;;3.98;2.47;;;;;;;15.95;71.59;99232.66;1693876;84;21133;-62
2021/05/30 07:56:12;;;;;;;;;;;;;;;16.05;70.17;99230.98;1694414;84;21595;-62
2021/05/30 07:58:39;;;;;;;3.55;2.33;;;;;;;16.18;70.41;99230.63;1688793;84;20169;-61
2021/05/30 08:01:06;;;;;;;4.37;2.47;;;;;;;16.21;69.70;99236.84;1706385;84;21659;-62
2021/05/30 08:03:33;;;;;;;4.17;2.27;;;;;;;16.25;70.70;99235.08;1686301;84;21124;-61
2021/05/30 08:05:59;;;;;;;4.05;2.27;;;;;;;16.32;69.70;99233.48;1679247;85;21616;-62
2021/05/30 08:08:25;;;;;;;;;;;;;;;16.47;70.19;99236.32;1682060;84;21084;-60
2021/05/30 08:10:52;;;;;;;6.12;2.60;;;;;;;16.66;70.50;99234.64;1699546;83;20167;-62
2021/05/30 08:13:19;;;;;;;5.50;2.58;;;;;;;16.67;69.01;99230.77;1700811;84;21089;-61
2021/05/30 08:15:45;;;;;;;4.05;2.60;;;;;;;16.73;69.22;99234.95;1687793;84;21068;-62
2021/05/30 08:18:13;;;;;;;2.90;2.37;;;;;;;16.92;70.50;99235.44;1693163;84;21105;-62
2021/05/30 08:20:41;;;;;;;2.70;2.37;;;;;;;17.26;68.25;99246.37;1688086;84;21077;-61
2021/05/30 08:23:07;;;;;;;;;;;;;;;17.32;67.40;99245.05;1711419;82;21429;-62
2021/05/30 08:25:33;;;;;;;4.03;2.40;;;;;;;17.40;67.14;99241.47;1713227;83;20156;-63
2021/05/30 08:28:00;;;;;;;4.00;2.60;;;;;;;17.32;67.86;99251.14;1719125;82;21135;-61
2021/05/30 08:30:27;;;;;;;4.70;2.50;;;;;;;17.24;66.21;99247.84;1694682;83;21647;-61
2021/05/30 08:32:53;;;;;;;4.35;2.35;;;;;;;17.12;65.92;99253.19;1697344;83;21120;-61
2021/05/30 08:35:20;;;;;;;4.53;2.47;;;;;;;17.05;66.42;99241.31;1693479;85;21116;-61
2021/05/30 08:39:51;;;;;;;3.75;2.80;;;;;;;17.06;66.83;99244.31;1779383;79;23535;-61
2021/05/30 08:42:21;;;;;;;4.25;2.45;;;;;;;16.88;67.13;99239.97;1744791;82;21089;-61
2021/05/30 08:44:52;;;;;;;4.05;2.58;;;;;;;16.89;67.01;99241.59;1722342;83;20996;-59
2021/05/30 08:47:22;;;;;;;2.85;2.08;;;;;;;16.91;67.44;99243.44;1708992;83;21647;-60
2021/05/30 08:49:49;;;;;;;3.83;2.20;;;;;;;16.95;65.77;99251.84;1720577;83;21063;-60
2021/05/30 08:52:16;;;;;;;2.27;1.60;;;;;;;16.88;64.96;99253.16;1721033;83;21607;-61
2021/05/30 08:54:43;;;;;;;3.95;1.80;;;;;;;16.76;64.04;99248.05;1661726;85;21087;-60
2021/05/30 08:57:09;;;;;;;2.92;2.25;;;;;;;16.72;63.78;99256.72;1669068;85;21663;-60
2021/05/30 08:59:37;;;;;;;4.08;1.90;;;;;;;16.57;64.03;99263.50;1666631;85;21094;-60
2021/05/30 09:02:11;;;;;;;2.30;1.90;;;;;;;16.49;64.51;99267.02;1682908;85;21039;-60
2021/05/30 09:04:40;;;;;;;2.60;2.00;;;;;;;16.42;64.86;99277.11;1652333;85;21080;-60
2021/05/30 09:07:07;;;;;;;4.00;2.05;;;;;;;16.32;66.89;99273.30;1717405;83;21108;-60
2021/05/30 09:09:45;;;;;;;4.33;2.30;;;;;;;16.19;66.17;99268.73;1729681;83;21115;-61
2021/05/30 09:12:28;;;;;;;4.97;2.35;;;;;;;16.13;67.17;99269.20;1729623;81;21943;-60
2021/05/30 09:14:56;;;;;;;3.60;2.20;;;;;;;16.15;67.75;99271.90;1645951;87;21092;-62
2021/05/30 09:17:26;;;;;;;3.10;2.30;;;;;;;16.16;68.04;99263.07;1660693;86;21167;-60
2021/05/30 09:19:54;;;;;;;5.33;2.65;;;;;;;16.15;68.05;99260.91;1687346;85;22658;-60
2021/05/30 09:22:36;;;;;;;3.75;2.33;;;;;;;16.04;67.80;99270.57;1682818;85;21607;-60
2021/05/30 09:25:15;;;;;;;3.60;2.10;;;;;;;15.93;68.81;99271.42;1685047;85;21503;-60
2021/05/30 09:27:53;;;;;;;4.53;2.12;;;;;;;15.87;68.42;99271.30;1664685;84;21233;-61
2021/05/30 09:30:32;;;;;;;7.50;2.40;;;;;;;15.84;68.22;99269.20;1671415;86;21029;-61
2021/05/30 09:33:18;;;;;;;3.37;2.20;;;;;;;15.77;68.55;99273.52;1670179;84;21108;-61
2021/05/30 09:35:47;;;;;;;4.40;2.10;;;;;;;15.71;68.96;99268.75;1666194;85;21115;-60
2021/05/30 09:38:20;;;;;;;2.52;1.80;;;;;;;15.76;68.58;99280.16;1657306;85;21120;-60
2021/05/30 09:40:49;;;;;;;2.40;1.90;;;;;;;15.80;68.84;99275.07;1619487;88;21045;-61
2021/05/30 09:43:20;;;;;;;4.90;2.00;;;;;;;15.74;68.35;99281.84;1692447;84;21112;-60
2021/05/30 09:46:09;;;;;;;5.42;2.00;;;;;;;15.67;69.18;99293.02;1694667;84;21060;-61
2021/05/30 09:48:41;;;;;;;4.67;2.05;;;;;;;15.55;69.66;99284.02;1709164;83;21105;-60
2021/05/30 09:51:33;;;;;;;4.67;2.10;;;;;;;15.47;70.03;99300.39;1692246;84;21516;-61
2021/05/30 09:54:14;;;;;;;2.92;1.95;;;;;;;15.44;70.33;99293.61;1697728;83;21108;-62
2021/05/30 09:56:46;;;;;;;3.77;2.02;;;;;;;15.32;70.62;99305.70;1683317;84;21524;-62
2021/05/30 09:59:15;;;;;;;5.85;2.62;;;;;;;15.20;71.24;99304.89;1699914;84;21611;-61
2021/05/30 10:02:00;;;;;;;4.55;3.35;;;;;;;15.22;71.51;99302.67;1692822;83;21041;-60
2021/05/30 10:04:30;;;;;;;5.33;2.47;;;;;;;15.21;71.79;99308.45;1699752;84;21615;-60
2021/05/30 10:07:00;;;;;;;4.87;4.28;;;;;;;15.04;71.39;99303.66;1706424;82;21077;-60
2021/05/30 10:09:29;;;;;;;4.20;3.05;;;;;;;15.01;71.74;99306.22;1693543;84;21692;-60
2021/05/30 10:11:56;;;;;;;3.12;1.92;;;;;;;15.01;72.08;99319.37;1705256;84;21049;-59
2021/05/30 10:14:24;;;;;;;7.22;4.45;;;;;;;14.99;72.77;99313.37;1691647;84;21092;-60
2021/05/30 10:16:50;;;;;;;4.75;3.42;;;;;;;15.01;72.44;99318.00;1705015;84;21122;-59
2021/05/30 10:19:42;;;;;;;2.90;2.30;;;;;;;14.99;72.89;99318.03;1695860;84;21131;-62
2021/05/30 10:22:09;;;;;;;4.10;2.40;;;;;;;14.98;73.29;99316.44;1704755;84;21101;-60
2021/05/30 10:24:40;;;;;;;3.90;2.50;;;;;;;14.99;73.49;99316.11;1700605;84;21085;-60
2021/05/30 10:27:25;;;;;;;2.98;2.50;;;;;;;15.02;73.78;99314.70;1680694;84;21101;-61
2021/05/30 10:30:15;;;;;;;6.28;2.95;;;;;;;15.12;73.86;99319.93;1633195;87;21469;-60
2021/05/30 10:32:48;;;;;;;3.77;2.20;;;;;;;15.12;73.97;99319.38;1696527;82;21608;-60
2021/05/30 10:35:27;;;;;;;4.72;2.60;;;;;;;15.15;74.40;99320.12;1688665;84;21054;-60
2021/05/30 10:37:56;;;;;;;12.82;9.08;;;;;;;15.14;74.04;99320.41;1707633;82;21623;-61
2021/05/30 10:40:27;;;;;;;4.45;3.72;;;;;;;15.15;74.49;99316.56;1711600;83;21581;-60
2021/05/30 10:43:14;;;;;;;3.15;2.58;;;;;;;15.17;74.22;99317.86;1715525;83;21468;-62
2021/05/30 10:45:54;;;;;;;4.90;2.72;;;;;;;15.14;74.70;99314.37;1711691;82;21654;-61
2021/05/30 10:48:22;;;;;;;6.35;2.70;;;;;;;15.19;74.60;99313.45;1702242;83;21104;-60
2021/05/30 10:50:56;;;;;;;3.67;3.27;;;;;;;15.28;74.57;99318.42;1678100;83;21612;-63
2021/05/30 10:53:51;;;;;;;5.92;2.30;;;;;;;15.36;74.62;99317.12;1703863;83;21669;-62
2021/05/30 10:56:37;;;;;;;5.65;2.55;;;;;;;15.39;74.17;99319.23;1708390;83;21025;-61
2021/05/30 10:59:15;;;;;;;2.92;2.30;;;;;;;15.47;73.63;99324.52;1708146;83;21597;-62
2021/05/30 11:01:50;;;;;;;3.80;2.22;;;;;;;15.57;73.58;99317.98;1707694;83;21025;-61
2021/05/30 11:04:29;;;;;;;6.40;2.77;;;;;;;15.70;73.74;99328.86;1654811;87;21085;-63
2021/05/30 11:07:09;;;;;;;2.40;1.70;;;;;;;15.75;71.96;99324.63;1622640;86;21041;-61
2021/05/30 11:10:01;;;;;;;4.03;3.40;;;;;;;15.71;70.51;99329.13;1685906;83;21129;-61
2021/05/30 11:12:33;;;;;;;5.37;3.17;;;;;;;15.59;70.23;99325.36;1706745;83;21144;-62
2021/05/30 11:15:16;;;;;;;7.47;4.40;;;;;;;15.51;68.52;99338.45;1712639;83;21897;-65
2021/05/30 11:17:56;;;;;;;3.92;2.40;;;;;;;15.52;69.95;99339.49;1685149;83;21111;-65
2021/05/30 11:20:44;;;;;;;5.28;2.35;;;;;;;15.44;68.99;99335.53;1690045;83;21105;-61
2021/05/30 11:23:13;;;;;;;3.95;2.00;;;;;;;15.37;69.62;99344.77;1697121;83;21528;-62
2021/05/30 11:25:48;;;;;;;7.30;5.40;;;;;;;15.40;70.21;99342.80;1707441;83;21599;-62
2021/05/30 11:28:23;;;;;;;3.37;2.08;;;;;;;15.41;69.91;99338.09;1645632;86;21224;-63
2021/05/30 11:31:01;;;;;;;68.95;62.43;;;;;;;15.42;70.14;99350.14;1706763;83;21075;-62
2021/05/30 11:33:42;;;;;;;6.17;3.37;;;;;;;15.57;70.07;99347.60;1715021;83;21105;-63
2021/05/30 11:36:15;;;;;;;2.05;1.30;;;;;;;15.69;68.32;99338.24;1711223;83;21037;-63
2021/05/30 11:38:53;;;;;;;3.60;1.82;;;;;;;15.68;68.21;99356.38;1708948;83;21077;-62
2021/05/30 11:41:33;;;;;;;6.05;4.15;;;;;;;15.59;68.29;99353.58;1693779;84;21066;-63
2021/05/30 11:44:15;;;;;;;4.72;1.90;;;;;;;15.64;69.17;99355.38;1684110;84;21085;-61
2021/05/30 11:46:56;;;;;;;1.98;1.42;;;;;;;15.62;69.03;99357.64;1706352;84;21029;-61
2021/05/30 11:49:30;;;;;;;3.25;1.20;;;;;;;15.62;69.46;99360.39;1697220;84;21600;-61
2021/05/30 11:52:15;;;;;;;2.25;1.37;;;;;;;15.53;69.53;99364.44;1683433;84;21053;-62